createdAt,value
2024-04-23T00:03:45.122Z,3.67
2024-04-23T00:08:47.153Z,4.35
2024-04-23T00:13:49.191Z,4.78
2024-04-23T00:18:51.469Z,2.95
2024-04-23T00:23:53.570Z,3.90
2024-04-23T00:28:55.607Z,5.10
2024-04-23T00:33:57.616Z,3.15
2024-04-23T00:38:59.668Z,3.33
2024-04-23T00:44:01.738Z,3.97
2024-04-23T00:49:04.110Z,6.22
2024-04-23T00:54:07.652Z,4.47
2024-04-23T00:59:17.916Z,3.13
2024-04-23T01:04:19.991Z,2.38
2024-04-23T01:09:22.399Z,3.40
2024-04-23T01:14:24.469Z,4.30
2024-04-23T01:19:41.788Z,4.60
2024-04-23T01:25:01.100Z,2.80
2024-04-23T01:30:05.530Z,3.65
2024-04-23T01:35:11.820Z,3.88
2024-04-23T01:40:14.322Z,6.60
2024-04-23T01:45:17.506Z,3.35
2024-04-23T01:50:19.759Z,4.63
2024-04-23T01:55:21.864Z,6.63
2024-04-23T02:00:25.157Z,7.13
2024-04-23T02:05:28.309Z,3.10
2024-04-23T02:10:30.829Z,5.07
2024-04-23T02:15:32.810Z,4.18
2024-04-23T02:20:34.843Z,5.13
2024-04-23T02:25:36.916Z,5.32
2024-04-23T02:30:39.156Z,5.18
2024-04-23T02:35:41.231Z,8.02
2024-04-23T02:40:43.271Z,5.85
2024-04-23T02:45:45.396Z,4.50
2024-04-23T02:50:47.398Z,4.55
2024-04-23T02:55:49.567Z,4.70
2024-04-23T03:00:51.705Z,4.28
2024-04-23T03:05:53.715Z,4.95
2024-04-23T03:10:55.768Z,4.28
2024-04-23T03:15:58.230Z,4.40
2024-04-23T03:21:00.272Z,3.92
2024-04-23T03:26:02.407Z,4.65
2024-04-23T03:31:04.697Z,4.47
2024-04-23T03:36:07.932Z,5.93
2024-04-23T03:41:09.919Z,7.95
2024-04-23T03:46:12.024Z,6.38
2024-04-23T03:51:14.016Z,6.10
2024-04-23T03:56:16.045Z,6.70
2024-04-23T04:01:18.075Z,6.20
2024-04-23T04:06:20.510Z,6.65
2024-04-23T04:11:22.646Z,5.43
2024-04-23T04:16:24.844Z,6.45
2024-04-23T04:21:26.826Z,6.55
2024-04-23T04:26:28.884Z,5.63
2024-04-23T04:31:30.932Z,8.45
2024-04-23T04:36:33.001Z,5.07
2024-04-23T04:41:35.101Z,6.28
2024-04-23T04:46:37.262Z,5.82
2024-04-23T04:51:39.300Z,5.72
2024-04-23T04:56:41.352Z,4.60
2024-04-23T05:01:43.377Z,5.07
2024-04-23T05:06:45.786Z,4.60
2024-04-23T05:11:48.000Z,6.78
2024-04-23T05:16:50.031Z,8.05
2024-04-23T05:21:52.102Z,5.20
2024-04-23T05:26:54.104Z,6.30
2024-04-23T05:32:14.992Z,5.97
2024-04-23T05:37:17.010Z,7.72
2024-04-23T05:42:19.876Z,7.70
2024-04-23T05:47:22.099Z,5.38
2024-04-23T05:53:20.738Z,6.60
2024-04-23T05:58:22.825Z,8.57
2024-04-23T06:03:24.843Z,9.45
2024-04-23T06:08:27.615Z,7.38
2024-04-23T06:13:29.761Z,6.15
2024-04-23T06:18:31.847Z,9.20
2024-04-23T06:23:34.047Z,9.65
2024-04-23T06:28:36.788Z,12.23
2024-04-23T06:33:39.095Z,11.60
2024-04-23T06:38:41.189Z,11.43
2024-04-23T06:43:43.257Z,13.13
2024-04-23T06:48:45.415Z,16.63
2024-04-23T06:53:47.447Z,16.02
2024-04-23T06:58:49.486Z,13.38
2024-04-23T07:03:51.597Z,12.52
2024-04-23T07:08:56.368Z,12.15
2024-04-23T07:13:58.668Z,17.83
2024-04-23T07:19:02.440Z,11.60
2024-04-23T07:24:04.960Z,10.32
2024-04-23T07:29:07.765Z,12.65
2024-04-23T07:34:09.876Z,10.98
2024-04-23T07:39:14.339Z,11.05
2024-04-23T07:44:17.532Z,10.15
2024-04-23T07:49:19.561Z,8.80
2024-04-23T07:54:21.632Z,9.40
2024-04-23T07:59:23.730Z,9.63
2024-04-23T08:04:25.744Z,6.63
2024-04-23T08:09:27.760Z,7.38
2024-04-23T08:14:29.791Z,8.00
2024-04-23T08:19:31.858Z,7.00
2024-04-23T08:24:33.934Z,8.38
2024-04-23T08:29:36.007Z,6.63
2024-04-23T08:34:38.304Z,8.18
2024-04-23T08:39:40.317Z,6.65
2024-04-23T08:44:44.609Z,7.22
2024-04-23T08:49:48.054Z,5.97
2024-04-23T08:54:50.142Z,6.20
2024-04-23T08:59:52.583Z,7.25
2024-04-23T09:04:59.312Z,4.25
2024-04-23T09:10:04.261Z,4.28
2024-04-23T09:15:07.456Z,5.80
2024-04-23T09:20:13.551Z,5.10
2024-04-23T09:25:16.354Z,4.70
2024-04-23T09:30:31.206Z,5.05
2024-04-23T09:35:33.338Z,5.35
2024-04-23T09:40:40.672Z,5.40
2024-04-23T09:45:43.469Z,5.32
2024-04-23T09:50:45.941Z,8.90
2024-04-23T09:56:03.697Z,4.97
2024-04-23T10:01:07.216Z,10.63
2024-04-23T10:06:19.139Z,5.63
2024-04-23T10:11:32.018Z,5.80
2024-04-23T10:16:45.978Z,8.60
2024-04-23T10:21:48.241Z,6.10
2024-04-23T10:26:50.879Z,5.63
2024-04-23T10:31:53.082Z,4.32
2024-04-23T10:36:56.370Z,5.57
2024-04-23T10:42:00.809Z,6.57
2024-04-23T10:47:03.619Z,5.20
2024-04-23T10:52:06.674Z,5.40
2024-04-23T10:57:09.103Z,5.35
2024-04-23T11:02:13.280Z,4.68
2024-04-23T11:07:27.100Z,5.65
2024-04-23T11:12:33.035Z,4.47
2024-04-23T11:17:42.094Z,3.53
2024-04-23T11:22:54.719Z,5.30
2024-04-23T11:27:57.068Z,7.72
2024-04-23T11:32:59.233Z,4.60
2024-04-23T11:38:01.320Z,4.68
2024-04-23T11:43:03.479Z,3.40
2024-04-23T11:48:06.011Z,3.53
2024-04-23T11:53:08.642Z,3.13
2024-04-23T11:58:10.715Z,3.20
2024-04-23T12:03:12.761Z,3.97
2024-04-23T12:08:18.153Z,3.17
2024-04-23T12:13:21.061Z,3.95
2024-04-23T12:18:23.242Z,3.35
2024-04-23T12:23:25.671Z,3.00
2024-04-23T12:28:27.730Z,4.60
2024-04-23T12:33:30.229Z,2.65
2024-04-23T12:38:49.141Z,6.25
2024-04-23T12:43:53.583Z,1.95
2024-04-23T12:48:57.683Z,5.50
2024-04-23T12:54:10.640Z,3.58
2024-04-23T12:59:16.793Z,2.90
2024-04-23T13:04:21.437Z,3.42
2024-04-23T13:09:26.513Z,4.32
2024-04-23T13:14:32.879Z,4.13
2024-04-23T13:19:37.589Z,2.90
2024-04-23T13:24:44.562Z,4.50
2024-04-23T13:29:50.114Z,3.83
2024-04-23T13:34:53.748Z,4.20
2024-04-23T13:40:07.729Z,3.45
2024-04-23T13:45:10.486Z,3.63
2024-04-23T13:50:13.299Z,4.03
2024-04-23T13:55:16.729Z,4.25
2024-04-23T14:00:21.249Z,4.75
2024-04-23T14:05:26.030Z,4.50
2024-04-23T14:10:33.379Z,4.10
2024-04-23T14:15:38.986Z,5.75
2024-04-23T14:20:44.974Z,4.93
2024-04-23T14:25:47.685Z,4.35
2024-04-23T14:30:51.084Z,3.92
2024-04-23T14:35:59.932Z,3.65
2024-04-23T14:41:07.493Z,3.17
2024-04-23T14:46:15.867Z,3.53
2024-04-23T14:51:21.126Z,5.10
2024-04-23T14:56:27.244Z,4.32
2024-04-23T15:06:48.287Z,5.90
2024-04-23T15:11:54.892Z,3.65
2024-04-23T15:17:12.270Z,3.88
2024-04-23T15:22:17.993Z,4.18
2024-04-23T15:27:23.502Z,3.85
2024-04-23T15:32:31.120Z,4.05
2024-04-23T15:37:34.658Z,3.85
2024-04-23T15:42:43.691Z,1.92
2024-04-23T15:47:55.807Z,2.33
2024-04-23T15:53:00.377Z,3.38
2024-04-23T15:58:05.127Z,2.85
2024-04-23T16:03:07.619Z,1.88
2024-04-23T16:08:10.135Z,1.98
2024-04-23T16:13:12.771Z,1.50
2024-04-23T16:18:16.061Z,2.67
2024-04-23T16:23:18.254Z,1.70
2024-04-23T16:28:21.228Z,1.15
2024-04-23T16:33:28.641Z,0.70
2024-04-23T16:38:31.107Z,2.17
2024-04-23T16:43:33.385Z,4.40
2024-04-23T16:48:36.444Z,1.20
2024-04-23T16:53:39.965Z,1.77
2024-04-23T16:58:42.141Z,0.75
2024-04-23T17:03:46.009Z,3.10
2024-04-23T17:08:48.211Z,5.20
2024-04-23T17:13:50.355Z,2.45
2024-04-23T17:18:52.470Z,2.70
2024-04-23T17:23:55.445Z,2.45
2024-04-23T17:29:01.312Z,5.93
2024-04-23T17:39:05.720Z,5.63
2024-04-23T17:44:08.061Z,2.50
2024-04-23T17:49:11.413Z,3.67
2024-04-23T17:54:13.485Z,4.55
2024-04-23T17:59:15.514Z,4.30
2024-04-23T18:04:17.566Z,3.58
2024-04-23T18:09:19.698Z,2.22
2024-04-23T18:14:21.818Z,4.53
2024-04-23T18:19:23.989Z,3.80
2024-04-23T18:24:26.005Z,1.80
2024-04-23T18:29:28.298Z,4.07
2024-04-23T18:34:30.810Z,4.50
2024-04-23T18:39:32.953Z,4.47
2024-04-23T18:44:36.357Z,7.95
2024-04-23T18:49:38.361Z,3.92
2024-04-23T18:54:42.977Z,5.50
2024-04-23T18:59:46.636Z,8.18
2024-04-23T19:04:48.622Z,6.97
2024-04-23T19:09:51.514Z,8.73
2024-04-23T19:14:53.669Z,10.20
2024-04-23T19:19:58.181Z,6.22
2024-04-23T19:25:01.892Z,6.40
2024-04-23T19:30:04.670Z,6.13
2024-04-23T19:35:07.374Z,6.47
2024-04-23T19:40:13.473Z,1.45
2024-04-23T19:45:15.673Z,3.78
2024-04-23T19:50:17.885Z,4.97
2024-04-23T19:55:21.444Z,5.80
2024-04-23T20:00:27.445Z,3.40
2024-04-23T20:05:29.710Z,5.65
2024-04-23T20:10:33.638Z,3.20
2024-04-23T20:15:35.772Z,6.60
2024-04-23T20:20:38.044Z,3.53
2024-04-23T20:25:47.426Z,4.63
2024-04-23T20:30:49.706Z,5.30
2024-04-23T20:35:51.820Z,2.70
2024-04-23T20:40:55.596Z,3.65
2024-04-23T20:45:57.772Z,5.78
2024-04-23T20:51:00.206Z,1.70
2024-04-23T20:56:09.313Z,6.25
2024-04-23T21:01:14.643Z,4.38
2024-04-23T21:06:16.884Z,3.85
2024-04-23T21:11:19.558Z,6.13
2024-04-23T21:16:25.025Z,5.13
2024-04-23T21:21:27.407Z,3.38
2024-04-23T21:26:29.844Z,4.70
2024-04-23T21:31:35.510Z,6.60
2024-04-23T21:36:39.493Z,7.25
2024-04-23T21:41:44.846Z,4.07
2024-04-23T21:46:48.357Z,7.05
2024-04-23T21:52:15.845Z,4.38
2024-04-23T21:57:18.634Z,9.88
2024-04-23T22:02:23.731Z,4.38
2024-04-23T22:07:25.841Z,2.10
2024-04-23T22:12:27.902Z,3.42
2024-04-23T22:17:32.513Z,2.15
2024-04-23T22:22:35.127Z,1.30
2024-04-23T22:27:41.587Z,0.60
2024-04-23T22:32:43.692Z,6.97
2024-04-23T22:37:47.618Z,2.65
2024-04-23T22:42:49.754Z,0.95
2024-04-23T22:47:51.798Z,4.80
2024-04-23T22:52:53.843Z,2.10
2024-04-23T22:57:55.874Z,1.60
2024-04-23T23:02:57.916Z,2.80
2024-04-23T23:07:59.987Z,0.60
2024-04-23T23:13:01.974Z,2.33
2024-04-23T23:18:04.337Z,3.92
2024-04-23T23:23:06.358Z,2.13
2024-04-23T23:28:09.559Z,1.42
2024-04-23T23:33:11.919Z,1.38
2024-04-23T23:38:14.054Z,1.60
2024-04-23T23:43:16.468Z,1.55
2024-04-23T23:48:18.684Z,3.00
2024-04-23T23:53:20.766Z,5.75
2024-04-23T23:58:22.842Z,2.05
